createdAt,value
2019-04-29T00:02:17.649Z,5.30
2019-04-29T00:04:47.051Z,5.03
2019-04-29T00:07:16.455Z,6.13
2019-04-29T00:09:46.922Z,6.77
2019-04-29T00:12:17.162Z,6.63
2019-04-29T00:14:48.280Z,6.63
2019-04-29T00:17:25.479Z,6.27
2019-04-29T00:20:12.668Z,5.67
2019-04-29T00:22:42.071Z,5.53
2019-04-29T00:25:11.740Z,5.77
2019-04-29T00:27:41.472Z,5.17
2019-04-29T00:30:12.831Z,4.87
2019-04-29T00:32:42.244Z,4.30
2019-04-29T00:35:11.626Z,4.20
2019-04-29T00:37:45.655Z,3.87
2019-04-29T00:40:25.698Z,3.53
2019-04-29T00:42:59.466Z,3.67
2019-04-29T00:45:28.926Z,3.67
2019-04-29T00:47:58.336Z,3.40
2019-04-29T00:50:27.734Z,3.27
2019-04-29T00:52:57.132Z,3.50
2019-04-29T00:55:28.188Z,3.40
2019-04-29T00:57:57.601Z,3.73
2019-04-29T01:00:31.500Z,4.30
2019-04-29T01:03:00.964Z,4.10
2019-04-29T01:05:30.384Z,3.90
2019-04-29T01:07:59.770Z,4.10
2019-04-29T01:10:29.706Z,3.83
2019-04-29T01:13:00.700Z,3.83
2019-04-29T01:15:30.114Z,3.80
2019-04-29T01:17:59.680Z,3.70
2019-04-29T01:20:29.083Z,4.00
2019-04-29T01:22:58.542Z,3.30
2019-04-29T01:25:27.942Z,3.27
2019-04-29T01:28:02.074Z,3.50
2019-04-29T01:30:52.772Z,4.33
2019-04-29T01:33:22.620Z,3.60
2019-04-29T01:35:53.648Z,3.40
2019-04-29T01:38:23.060Z,3.70
2019-04-29T01:40:57.031Z,3.57
2019-04-29T01:43:28.080Z,3.63
2019-04-29T01:45:57.473Z,4.53
2019-04-29T01:48:26.875Z,3.40
2019-04-29T01:50:56.261Z,3.87
2019-04-29T01:53:25.683Z,3.63
2019-04-29T01:55:55.072Z,3.73
2019-04-29T01:58:24.480Z,3.77
2019-04-29T02:00:53.969Z,3.70
2019-04-29T02:03:23.392Z,3.80
2019-04-29T02:05:52.779Z,3.87
2019-04-29T02:08:22.208Z,5.53
2019-04-29T02:10:52.276Z,5.67
2019-04-29T02:13:23.359Z,5.80
2019-04-29T02:15:52.763Z,6.60
2019-04-29T02:18:22.183Z,6.07
2019-04-29T02:20:51.579Z,5.57
2019-04-29T02:23:22.643Z,5.80
2019-04-29T02:25:52.097Z,5.00
2019-04-29T02:28:21.514Z,4.77
2019-04-29T02:30:52.858Z,5.00
2019-04-29T02:33:22.253Z,4.87
2019-04-29T02:35:51.663Z,5.37
2019-04-29T02:38:34.729Z,5.27
2019-04-29T02:41:05.778Z,5.20
2019-04-29T02:43:42.808Z,4.60
2019-04-29T02:46:12.410Z,4.53
2019-04-29T02:48:41.819Z,4.53
2019-04-29T02:51:12.860Z,4.57
2019-04-29T02:53:42.292Z,4.83
2019-04-29T02:56:11.683Z,4.57
2019-04-29T02:58:42.740Z,4.60
2019-04-29T03:01:16.947Z,4.10
2019-04-29T03:04:00.060Z,4.33
2019-04-29T03:06:29.467Z,4.80
2019-04-29T03:08:58.938Z,4.43
2019-04-29T03:11:28.428Z,4.37
2019-04-29T03:13:57.804Z,5.00
2019-04-29T03:16:27.374Z,4.80
2019-04-29T03:18:59.070Z,4.60
2019-04-29T03:21:33.118Z,5.10
2019-04-29T03:24:02.566Z,4.90
2019-04-29T03:26:31.918Z,4.90
2019-04-29T03:29:01.345Z,5.63
2019-04-29T03:31:30.811Z,5.17
2019-04-29T03:34:00.208Z,5.60
2019-04-29T03:36:29.626Z,5.80
2019-04-29T03:38:59.046Z,5.63
2019-04-29T03:41:28.425Z,5.50
2019-04-29T03:43:57.934Z,5.40
2019-04-29T03:46:27.336Z,5.50
2019-04-29T03:48:56.738Z,5.87
2019-04-29T03:51:26.147Z,4.87
2019-04-29T03:53:55.542Z,5.03
2019-04-29T03:56:24.977Z,4.33
2019-04-29T03:58:54.453Z,5.37
2019-04-29T04:01:34.258Z,5.83
2019-04-29T04:04:05.302Z,5.03
2019-04-29T04:06:36.331Z,5.63
2019-04-29T04:11:51.413Z,5.93
2019-04-29T04:14:20.850Z,4.43
2019-04-29T04:17:06.905Z,5.27
2019-04-29T04:19:36.314Z,5.43
2019-04-29T04:22:05.707Z,5.10
2019-04-29T04:24:35.166Z,5.13
2019-04-29T04:27:04.639Z,5.23
2019-04-29T04:29:34.170Z,5.17
2019-04-29T04:32:03.568Z,5.53
2019-04-29T04:34:32.974Z,4.80
2019-04-29T04:37:02.377Z,5.40
2019-04-29T04:39:33.437Z,4.47
2019-04-29T04:42:02.827Z,5.17
2019-04-29T04:44:39.557Z,5.40
2019-04-29T04:47:08.962Z,4.93
2019-04-29T04:49:38.420Z,5.53
2019-04-29T04:52:07.836Z,5.67
2019-04-29T04:54:37.316Z,5.20
2019-04-29T04:57:06.739Z,5.40
2019-04-29T04:59:36.147Z,4.90
2019-04-29T05:02:05.559Z,5.30
2019-04-29T05:04:34.950Z,4.17
2019-04-29T05:07:04.467Z,6.37
2019-04-29T05:09:33.942Z,5.57
2019-04-29T05:12:03.426Z,5.60
2019-04-29T05:14:34.432Z,5.50
2019-04-29T05:17:03.838Z,4.30
2019-04-29T05:19:33.250Z,6.40
2019-04-29T05:22:02.654Z,5.00
2019-04-29T05:24:32.060Z,5.07
2019-04-29T05:27:01.441Z,5.80
2019-04-29T05:29:30.929Z,5.30
2019-04-29T05:32:00.396Z,4.77
2019-04-29T05:34:31.441Z,4.53
2019-04-29T05:37:18.507Z,5.43
2019-04-29T05:39:47.928Z,5.23
2019-04-29T05:42:17.412Z,5.30
2019-04-29T05:44:51.412Z,4.83
2019-04-29T05:47:38.660Z,4.83
2019-04-29T05:50:26.647Z,5.50
2019-04-29T05:52:57.690Z,5.47
2019-04-29T05:55:27.120Z,5.30
2019-04-29T05:58:03.032Z,5.10
2019-04-29T06:00:29.270Z,5.30
2019-04-29T06:02:58.768Z,3.80
2019-04-29T06:05:28.289Z,4.37
2019-04-29T06:08:01.189Z,5.57
2019-04-29T06:10:28.787Z,4.97
2019-04-29T06:12:58.173Z,5.43
2019-04-29T06:15:27.579Z,4.63
2019-04-29T06:17:56.971Z,5.23
2019-04-29T06:20:26.461Z,5.87
2019-04-29T06:22:55.857Z,7.17
2019-04-29T06:27:50.909Z,5.63
2019-04-29T06:30:20.355Z,5.60
2019-04-29T06:32:49.738Z,6.10
2019-04-29T06:35:19.226Z,6.73
2019-04-29T06:37:48.619Z,6.07
2019-04-29T06:40:18.031Z,6.13
2019-04-29T06:42:49.466Z,6.17
2019-04-29T06:45:18.707Z,6.50
2019-04-29T06:47:48.114Z,7.07
2019-04-29T06:50:17.963Z,5.80
2019-04-29T06:52:47.419Z,5.90
2019-04-29T06:55:17.003Z,5.30
2019-04-29T06:57:46.393Z,5.50
2019-04-29T07:00:17.571Z,6.10
2019-04-29T07:02:49.861Z,6.17
2019-04-29T07:05:18.101Z,5.07
2019-04-29T07:07:47.498Z,4.03
2019-04-29T07:10:21.790Z,4.93
2019-04-29T07:12:48.501Z,5.43
2019-04-29T07:15:19.586Z,4.43
2019-04-29T07:17:49.024Z,5.03
2019-04-29T07:20:18.435Z,4.70
2019-04-29T07:22:47.821Z,5.50
2019-04-29T07:25:17.234Z,4.40
2019-04-29T07:27:46.628Z,5.07
2019-04-29T07:30:16.360Z,4.90
2019-04-29T07:32:46.975Z,5.47
2019-04-29T07:35:17.009Z,3.70
2019-04-29T07:37:46.388Z,4.60
2019-04-29T07:40:17.618Z,5.77
2019-04-29T07:42:47.143Z,5.60
2019-04-29T07:45:23.893Z,5.97
2019-04-29T07:47:56.543Z,4.40
2019-04-29T07:50:26.839Z,5.10
2019-04-29T07:52:56.247Z,6.07
2019-04-29T07:55:30.211Z,5.93
2019-04-29T07:57:57.022Z,5.90
2019-04-29T08:00:34.477Z,5.43
2019-04-29T08:03:07.133Z,6.17
2019-04-29T08:05:36.791Z,5.73
2019-04-29T08:08:06.481Z,6.87
2019-04-29T08:10:35.978Z,6.27
2019-04-29T08:13:08.033Z,6.17
2019-04-29T08:15:41.559Z,7.40
2019-04-29T08:18:11.432Z,7.03
2019-04-29T08:20:41.526Z,6.30
2019-04-29T08:23:10.941Z,7.23
2019-04-29T08:25:40.377Z,5.97
2019-04-29T08:28:10.606Z,7.60
2019-04-29T08:30:41.899Z,7.43
2019-04-29T08:33:12.001Z,7.53
2019-04-29T08:35:42.447Z,8.47
2019-04-29T08:38:11.883Z,7.20
2019-04-29T08:40:45.232Z,7.43
2019-04-29T08:43:15.841Z,7.70
2019-04-29T08:46:02.205Z,8.10
2019-04-29T08:48:31.617Z,7.10
2019-04-29T08:51:01.033Z,7.50
2019-04-29T08:53:30.511Z,7.03
2019-04-29T08:55:59.934Z,6.40
2019-04-29T08:58:29.327Z,6.77
2019-04-29T09:00:58.751Z,7.03
2019-04-29T09:03:39.691Z,6.90
2019-04-29T09:06:05.389Z,7.53
2019-04-29T09:08:32.985Z,6.70
2019-04-29T09:11:01.581Z,6.60
2019-04-29T09:13:32.149Z,6.40
2019-04-29T09:16:03.183Z,6.87
2019-04-29T09:18:32.625Z,7.03
2019-04-29T09:21:02.205Z,6.33
2019-04-29T09:23:33.250Z,7.27
2019-04-29T09:26:06.970Z,6.40
2019-04-29T09:28:36.364Z,5.65
2019-04-29T09:31:05.930Z,5.55
2019-04-29T09:33:35.406Z,5.20
2019-04-29T09:36:04.887Z,5.45
2019-04-29T09:38:36.865Z,5.17
2019-04-29T09:41:07.118Z,4.83
2019-04-29T09:43:38.150Z,3.90
2019-04-29T09:46:18.463Z,2.70
2019-04-29T09:48:46.370Z,2.52
2019-04-29T09:51:17.637Z,3.15
2019-04-29T09:53:46.886Z,3.20
2019-04-29T09:56:16.377Z,3.00
2019-04-29T09:58:45.790Z,3.00
2019-04-29T10:01:18.931Z,3.80
2019-04-29T10:03:52.473Z,2.55
2019-04-29T10:06:23.533Z,1.92
2019-04-29T10:08:52.931Z,2.15
2019-04-29T10:11:22.398Z,1.92
2019-04-29T10:13:54.523Z,2.33
2019-04-29T10:16:27.310Z,2.00
2019-04-29T10:19:00.732Z,1.77
2019-04-29T10:21:29.561Z,2.25
2019-04-29T10:23:59.055Z,2.25
2019-04-29T10:26:28.519Z,1.80
2019-04-29T10:28:59.578Z,1.85
2019-04-29T10:31:29.043Z,2.10
2019-04-29T10:33:58.456Z,2.20
2019-04-29T10:36:28.025Z,2.47
2019-04-29T10:38:59.074Z,2.62
2019-04-29T10:41:30.512Z,2.37
2019-04-29T10:44:07.393Z,2.22
2019-04-29T10:46:54.701Z,1.77
2019-04-29T10:49:25.769Z,1.70
2019-04-29T10:51:57.958Z,1.65
2019-04-29T10:54:28.616Z,2.00
2019-04-29T10:56:58.249Z,1.32
2019-04-29T10:59:36.121Z,1.47
2019-04-29T11:02:15.775Z,1.60
2019-04-29T11:04:46.621Z,2.05
2019-04-29T11:07:27.677Z,1.90
2019-04-29T11:09:59.039Z,1.82
2019-04-29T11:12:28.521Z,1.95
2019-04-29T11:15:01.205Z,1.90
2019-04-29T11:17:29.376Z,2.17
2019-04-29T11:19:58.861Z,1.85
2019-04-29T11:22:33.868Z,1.75
2019-04-29T11:25:13.435Z,1.37
2019-04-29T11:27:56.562Z,1.90
2019-04-29T11:30:30.291Z,2.05
2019-04-29T11:33:16.278Z,1.77
2019-04-29T11:36:05.441Z,1.80
2019-04-29T11:38:38.398Z,1.60
2019-04-29T11:41:06.125Z,1.70
2019-04-29T11:43:35.711Z,1.60
2019-04-29T11:46:05.452Z,1.50
2019-04-29T11:48:34.976Z,1.60
2019-04-29T11:51:22.292Z,1.60
2019-04-29T11:53:51.785Z,1.87
2019-04-29T11:56:21.356Z,1.60
2019-04-29T11:58:58.408Z,1.57
2019-04-29T12:01:39.223Z,1.67
2019-04-29T12:04:28.555Z,1.30
2019-04-29T12:06:58.268Z,1.67
2019-04-29T12:09:30.345Z,1.40
2019-04-29T12:11:58.787Z,1.50
2019-04-29T12:14:33.836Z,1.43
2019-04-29T12:17:09.152Z,1.40
2019-04-29T12:19:43.188Z,1.40
2019-04-29T12:22:26.948Z,1.20
2019-04-29T12:24:43.717Z,1.27
2019-04-29T12:27:14.805Z,1.33
2019-04-29T12:29:44.494Z,1.70
2019-04-29T12:32:25.125Z,1.60
2019-04-29T12:34:59.957Z,1.57
2019-04-29T12:37:37.348Z,1.37
2019-04-29T12:40:14.469Z,1.50
2019-04-29T12:42:55.174Z,1.40
2019-04-29T12:45:42.435Z,1.40
2019-04-29T12:48:23.925Z,1.40
2019-04-29T12:50:43.274Z,1.20
2019-04-29T12:53:12.665Z,1.30
2019-04-29T12:55:50.290Z,1.27
2019-04-29T12:58:19.301Z,1.33
2019-04-29T13:00:56.376Z,1.27
2019-04-29T13:03:41.086Z,1.37
2019-04-29T13:06:23.498Z,1.37
2019-04-29T13:08:56.309Z,1.17
2019-04-29T13:11:36.144Z,1.10
2019-04-29T13:14:01.766Z,1.10
2019-04-29T13:16:34.123Z,1.30
2019-04-29T13:19:12.286Z,0.83
2019-04-29T13:21:39.634Z,1.10
2019-04-29T13:24:18.177Z,1.10
2019-04-29T13:26:42.890Z,0.80
2019-04-29T13:29:25.882Z,1.20
2019-04-29T13:31:42.633Z,0.93
2019-04-29T13:34:23.516Z,1.20
2019-04-29T13:36:44.797Z,0.90
2019-04-29T13:39:14.656Z,1.10
2019-04-29T13:41:57.236Z,1.27
2019-04-29T13:44:19.396Z,1.33
2019-04-29T13:46:51.066Z,1.30
2019-04-29T13:49:23.716Z,1.30
2019-04-29T13:51:54.740Z,1.47
2019-04-29T13:54:24.152Z,1.23
2019-04-29T13:56:56.689Z,0.97
2019-04-29T13:59:26.365Z,1.20
2019-04-29T14:02:05.602Z,0.90
2019-04-29T14:04:32.994Z,1.00
2019-04-29T14:07:02.458Z,0.90
2019-04-29T14:09:35.033Z,1.00
2019-04-29T14:12:46.047Z,1.00
2019-04-29T14:14:34.072Z,1.00
2019-04-29T14:17:24.091Z,0.73
2019-04-29T14:19:40.942Z,0.90
2019-04-29T14:22:06.280Z,1.27
2019-04-29T14:24:35.778Z,1.10
2019-04-29T14:27:05.728Z,0.73
2019-04-29T14:29:35.132Z,0.93
2019-04-29T14:32:04.758Z,0.97
2019-04-29T14:34:38.463Z,0.90
2019-04-29T14:37:21.341Z,0.77
2019-04-29T14:39:38.990Z,1.10
2019-04-29T14:42:30.161Z,0.97
2019-04-29T14:44:58.970Z,1.00
2019-04-29T14:47:30.019Z,0.93
2019-04-29T14:50:10.595Z,1.03
2019-04-29T14:52:38.218Z,1.10
2019-04-29T14:55:07.799Z,0.80
2019-04-29T14:57:37.215Z,0.87
2019-04-29T15:00:10.198Z,0.77
2019-04-29T15:02:39.629Z,0.80
2019-04-29T15:05:12.274Z,2.73
2019-04-29T15:07:40.292Z,1.50
2019-04-29T15:10:14.177Z,0.90
2019-04-29T15:13:01.927Z,1.20
2019-04-29T15:15:34.207Z,1.00
2019-04-29T15:18:15.842Z,1.10
2019-04-29T15:20:50.924Z,0.90
2019-04-29T15:23:28.337Z,1.00
2019-04-29T15:25:51.437Z,1.47
2019-04-29T15:28:20.851Z,1.40
2019-04-29T15:30:50.261Z,1.13
2019-04-29T15:33:19.661Z,1.20
2019-04-29T15:35:49.069Z,1.20
2019-04-29T15:38:18.484Z,1.00
2019-04-29T15:40:47.989Z,1.10
2019-04-29T15:43:22.029Z,0.97
2019-04-29T15:45:48.512Z,1.00
2019-04-29T15:48:17.927Z,1.00
2019-04-29T15:50:47.323Z,1.10
2019-04-29T15:53:16.813Z,0.97
2019-04-29T15:55:46.214Z,1.07
2019-04-29T15:58:15.707Z,0.90
2019-04-29T16:00:45.180Z,1.10
2019-04-29T16:03:17.901Z,1.40
2019-04-29T16:06:11.236Z,0.90
2019-04-29T16:08:41.184Z,1.97
2019-04-29T16:11:29.438Z,1.50
2019-04-29T16:14:09.025Z,1.10
2019-04-29T16:16:34.028Z,1.30
2019-04-29T16:19:08.373Z,1.20
2019-04-29T16:21:39.493Z,1.30
2019-04-29T16:24:24.973Z,1.10
2019-04-29T16:26:37.708Z,1.00
2019-04-29T16:29:12.272Z,0.80
2019-04-29T16:31:38.262Z,1.10
2019-04-29T16:34:07.685Z,1.20
2019-04-29T16:36:37.067Z,1.00
2019-04-29T16:39:06.832Z,1.20
2019-04-29T16:41:37.864Z,1.30
2019-04-29T16:44:33.723Z,1.20
2019-04-29T16:46:40.449Z,1.10
2019-04-29T16:49:10.038Z,1.00
2019-04-29T16:51:39.514Z,1.00
2019-04-29T16:54:12.874Z,1.30
2019-04-29T16:56:40.021Z,0.83
2019-04-29T16:59:09.720Z,1.03
2019-04-29T17:01:39.178Z,1.10
2019-04-29T17:04:08.583Z,1.30
2019-04-29T17:06:41.517Z,1.00
2019-04-29T17:09:13.200Z,0.90
2019-04-29T17:11:44.333Z,1.10
2019-04-29T17:14:13.897Z,1.10
2019-04-29T17:16:43.356Z,1.10
2019-04-29T17:19:13.299Z,1.17
2019-04-29T17:21:42.712Z,1.20
2019-04-29T17:24:12.246Z,1.00
2019-04-29T17:26:43.297Z,2.80
2019-04-29T17:29:37.958Z,2.03
2019-04-29T17:32:03.393Z,2.10
2019-04-29T17:34:57.958Z,1.70
2019-04-29T17:37:06.410Z,1.63
2019-04-29T17:39:35.812Z,1.73
2019-04-29T17:42:05.216Z,2.13
2019-04-29T17:44:42.024Z,1.90
2019-04-29T17:47:25.207Z,1.90
2019-04-29T17:50:06.208Z,5.43
2019-04-29T17:52:35.129Z,2.00
2019-04-29T17:55:11.980Z,3.10
2019-04-29T17:57:48.464Z,4.10
2019-04-29T18:00:20.299Z,4.33
2019-04-29T18:03:03.121Z,4.00
2019-04-29T18:05:52.162Z,3.70
2019-04-29T18:08:19.192Z,4.57
2019-04-29T18:10:50.243Z,4.60
2019-04-29T18:13:24.011Z,3.40
2019-04-29T18:16:00.896Z,4.43
2019-04-29T18:18:26.370Z,7.13
2019-04-29T18:21:12.386Z,5.90
2019-04-29T18:23:51.543Z,5.80
2019-04-29T18:26:37.900Z,7.17
2019-04-29T18:29:08.129Z,5.90
2019-04-29T18:31:37.568Z,3.90
2019-04-29T18:34:07.050Z,3.83
2019-04-29T18:36:36.441Z,4.00
2019-04-29T18:39:09.039Z,4.20
2019-04-29T18:41:38.447Z,4.30
2019-04-29T18:44:07.928Z,3.83
2019-04-29T18:46:37.432Z,4.27
2019-04-29T18:49:07.224Z,4.90
2019-04-29T18:51:36.804Z,4.17
2019-04-29T18:54:06.310Z,4.23
2019-04-29T18:56:36.350Z,5.17
2019-04-29T18:59:06.926Z,4.97
2019-04-29T19:01:36.322Z,4.87
2019-04-29T19:04:18.955Z,5.67
2019-04-29T19:06:51.194Z,5.00
2019-04-29T19:09:20.847Z,5.40
2019-04-29T19:11:52.989Z,6.00
2019-04-29T19:14:25.585Z,5.03
2019-04-29T19:17:00.149Z,5.00
2019-04-29T19:19:25.333Z,6.20
2019-04-29T19:21:55.885Z,6.33
2019-04-29T19:24:27.497Z,5.90
2019-04-29T19:27:00.620Z,5.77
2019-04-29T19:29:27.659Z,6.03
2019-04-29T19:31:57.046Z,5.43
2019-04-29T19:34:26.569Z,6.10
2019-04-29T19:36:59.357Z,6.73
2019-04-29T19:39:27.277Z,8.27
2019-04-29T19:41:56.694Z,27.93
2019-04-29T19:44:33.115Z,13.30
2019-04-29T19:46:59.162Z,6.93
2019-04-29T19:49:28.501Z,5.43
2019-04-29T19:51:58.079Z,9.13
2019-04-29T19:54:28.631Z,10.80
2019-04-29T19:57:03.539Z,8.90
2019-04-29T19:59:29.801Z,8.80
2019-04-29T20:02:05.339Z,8.23
2019-04-29T20:04:32.775Z,9.03
2019-04-29T20:07:07.306Z,7.93
2019-04-29T20:09:36.328Z,7.30
2019-04-29T20:12:12.867Z,7.63
2019-04-29T20:14:37.275Z,6.30
2019-04-29T20:17:14.085Z,6.83
2019-04-29T20:19:58.828Z,7.40
2019-04-29T20:22:24.352Z,7.87
2019-04-29T20:24:55.724Z,7.37
2019-04-29T20:27:26.161Z,7.23
2019-04-29T20:29:56.194Z,8.03
2019-04-29T20:32:27.749Z,7.57
2019-04-29T20:35:06.703Z,7.83
2019-04-29T20:37:28.381Z,7.63
2019-04-29T20:40:00.798Z,8.23
2019-04-29T20:42:29.222Z,7.90
2019-04-29T20:44:58.794Z,8.13
2019-04-29T20:47:37.609Z,8.83
2019-04-29T20:49:59.788Z,8.60
2019-04-29T20:52:31.153Z,8.10
2019-04-29T20:55:02.666Z,7.27
2019-04-29T20:57:31.942Z,7.07
2019-04-29T21:00:01.858Z,6.97
2019-04-29T21:02:35.366Z,6.37
2019-04-29T21:05:02.621Z,6.90
2019-04-29T21:07:32.166Z,8.10
2019-04-29T21:10:05.901Z,7.83
2019-04-29T21:12:38.417Z,8.03
2019-04-29T21:15:19.125Z,8.10
2019-04-29T21:17:48.768Z,7.70
2019-04-29T21:20:18.190Z,8.53
2019-04-29T21:22:47.611Z,7.43
2019-04-29T21:25:17.025Z,7.40
2019-04-29T21:27:48.488Z,8.40
2019-04-29T21:30:18.528Z,9.70
2019-04-29T21:32:47.932Z,9.27
2019-04-29T21:35:21.888Z,10.07
2019-04-29T21:38:09.242Z,8.53
2019-04-29T21:40:40.306Z,8.60
2019-04-29T21:43:17.595Z,8.47
2019-04-29T21:45:48.343Z,8.93
2019-04-29T21:48:37.388Z,8.50
2019-04-29T21:51:11.077Z,6.43
2019-04-29T21:53:40.243Z,6.10
2019-04-29T21:56:09.651Z,6.60
2019-04-29T21:58:39.073Z,7.40
2019-04-29T22:01:09.359Z,6.33
2019-04-29T22:03:38.749Z,5.20
2019-04-29T22:06:08.179Z,5.50
2019-04-29T22:08:37.657Z,8.77
2019-04-29T22:11:07.175Z,8.10
2019-04-29T22:13:39.087Z,7.50
2019-04-29T22:16:11.551Z,6.70
2019-04-29T22:18:39.225Z,6.33
2019-04-29T22:21:10.090Z,6.10
2019-04-29T22:23:44.370Z,5.47
2019-04-29T22:26:10.841Z,5.50
2019-04-29T22:28:40.236Z,6.33
2019-04-29T22:31:09.664Z,5.77
2019-04-29T22:33:39.075Z,5.33
2019-04-29T22:36:10.171Z,6.40
2019-04-29T22:38:43.700Z,6.60
2019-04-29T22:41:18.745Z,6.13
2019-04-29T22:43:47.921Z,6.13
2019-04-29T22:46:17.556Z,6.00
2019-04-29T22:48:48.688Z,5.87
2019-04-29T22:51:19.037Z,6.00
2019-04-29T22:53:48.583Z,6.40
2019-04-29T22:56:17.999Z,5.93
2019-04-29T22:58:47.580Z,5.90
2019-04-29T23:01:17.745Z,6.30
2019-04-29T23:03:47.325Z,6.70
2019-04-29T23:06:16.700Z,6.40
2019-04-29T23:08:46.168Z,5.87
2019-04-29T23:11:15.648Z,6.07
2019-04-29T23:13:46.166Z,5.27
2019-04-29T23:16:16.178Z,5.23
2019-04-29T23:18:50.513Z,5.93
2019-04-29T23:21:23.130Z,6.03
2019-04-29T23:24:13.227Z,6.10
2019-04-29T23:26:42.572Z,6.27
2019-04-29T23:29:12.072Z,6.90
2019-04-29T23:31:41.464Z,8.73
2019-04-29T23:34:10.878Z,7.97
2019-04-29T23:36:40.276Z,8.27
2019-04-29T23:39:09.695Z,9.57
2019-04-29T23:41:39.088Z,8.60
2019-04-29T23:44:08.958Z,9.10
2019-04-29T23:46:38.401Z,7.80
2019-04-29T23:49:07.829Z,6.93
2019-04-29T23:51:37.726Z,8.83
2019-04-29T23:54:08.019Z,8.23
2019-04-29T23:56:56.496Z,8.37
2019-04-29T23:59:27.629Z,8.40
